sensor_id;sensor_type;location;lat;lon;timestamp;P1;durP1;ratioP1;P2;durP2;ratioP2
2035;SDS011;23642;42.658;23.350;2022-12-10T00:01:11;80.07;;;73.87;;
2035;SDS011;23642;42.658;23.350;2022-12-10T00:03:39;79.03;;;72.30;;
2035;SDS011;23642;42.658;23.350;2022-12-10T00:06:06;79.77;;;73.10;;
2035;SDS011;23642;42.658;23.350;2022-12-10T00:08:35;78.27;;;71.60;;
2035;SDS011;23642;42.658;23.350;2022-12-10T00:11:04;78.70;;;72.40;;
2035;SDS011;23642;42.658;23.350;2022-12-10T00:13:32;79.20;;;72.67;;
2035;SDS011;23642;42.658;23.350;2022-12-10T00:16:01;78.33;;;71.63;;
2035;SDS011;23642;42.658;23.350;2022-12-10T00:18:28;79.10;;;72.70;;
2035;SDS011;23642;42.658;23.350;2022-12-10T00:20:55;77.13;;;71.00;;
2035;SDS011;23642;42.658;23.350;2022-12-10T00:23:24;79.30;;;72.63;;
2035;SDS011;23642;42.658;23.350;2022-12-10T00:25:53;81.90;;;75.30;;
2035;SDS011;23642;42.658;23.350;2022-12-10T00:28:22;77.97;;;71.50;;
2035;SDS011;23642;42.658;23.350;2022-12-10T00:30:49;78.30;;;71.73;;
2035;SDS011;23642;42.658;23.350;2022-12-10T00:33:17;80.90;;;74.30;;
2035;SDS011;23642;42.658;23.350;2022-12-10T00:35:44;77.67;;;71.60;;
2035;SDS011;23642;42.658;23.350;2022-12-10T00:38:11;79.97;;;73.13;;
2035;SDS011;23642;42.658;23.350;2022-12-10T00:40:38;80.97;;;73.13;;
2035;SDS011;23642;42.658;23.350;2022-12-10T00:43:05;77.80;;;71.30;;
2035;SDS011;23642;42.658;23.350;2022-12-10T00:45:34;75.90;;;70.10;;
2035;SDS011;23642;42.658;23.350;2022-12-10T00:48:01;77.10;;;70.80;;
2035;SDS011;23642;42.658;23.350;2022-12-10T00:50:28;78.30;;;71.50;;
2035;SDS011;23642;42.658;23.350;2022-12-10T00:52:55;76.60;;;70.50;;
2035;SDS011;23642;42.658;23.350;2022-12-10T00:55:24;79.63;;;73.33;;
2035;SDS011;23642;42.658;23.350;2022-12-10T00:57:51;75.47;;;69.60;;
2035;SDS011;23642;42.658;23.350;2022-12-10T01:00:18;77.13;;;71.07;;
2035;SDS011;23642;42.658;23.350;2022-12-10T01:02:46;76.07;;;69.93;;
2035;SDS011;23642;42.658;23.350;2022-12-10T01:05:13;76.03;;;69.73;;
2035;SDS011;23642;42.658;23.350;2022-12-10T01:07:40;75.80;;;70.00;;
2035;SDS011;23642;42.658;23.350;2022-12-10T01:10:07;74.83;;;68.63;;
2035;SDS011;23642;42.658;23.350;2022-12-10T01:12:34;76.97;;;70.70;;
2035;SDS011;23642;42.658;23.350;2022-12-10T01:15:01;77.83;;;71.83;;
2035;SDS011;23642;42.658;23.350;2022-12-10T01:17:30;80.30;;;73.50;;
2035;SDS011;23642;42.658;23.350;2022-12-10T01:19:59;76.10;;;69.67;;
2035;SDS011;23642;42.658;23.350;2022-12-10T01:22:26;78.53;;;71.37;;
2035;SDS011;23642;42.658;23.350;2022-12-10T01:24:53;78.23;;;71.90;;
2035;SDS011;23642;42.658;23.350;2022-12-10T01:27:20;75.93;;;69.53;;
2035;SDS011;23642;42.658;23.350;2022-12-10T01:29:47;80.20;;;73.57;;
2035;SDS011;23642;42.658;23.350;2022-12-10T01:32:13;77.07;;;71.03;;
2035;SDS011;23642;42.658;23.350;2022-12-10T01:34:40;78.70;;;72.50;;
2035;SDS011;23642;42.658;23.350;2022-12-10T01:37:08;79.50;;;72.80;;
2035;SDS011;23642;42.658;23.350;2022-12-10T01:39:36;81.13;;;74.30;;
2035;SDS011;23642;42.658;23.350;2022-12-10T01:42:03;79.30;;;73.00;;
2035;SDS011;23642;42.658;23.350;2022-12-10T01:47:27;78.20;;;72.27;;
2035;SDS011;23642;42.658;23.350;2022-12-10T01:49:54;80.67;;;73.30;;
2035;SDS011;23642;42.658;23.350;2022-12-10T01:52:22;76.70;;;71.13;;
2035;SDS011;23642;42.658;23.350;2022-12-10T01:54:49;78.50;;;72.30;;
2035;SDS011;23642;42.658;23.350;2022-12-10T01:57:17;80.17;;;73.33;;
2035;SDS011;23642;42.658;23.350;2022-12-10T01:59:46;78.30;;;72.43;;
2035;SDS011;23642;42.658;23.350;2022-12-10T02:02:17;78.80;;;72.73;;
2035;SDS011;23642;42.658;23.350;2022-12-10T02:04:56;77.47;;;71.47;;
2035;SDS011;23642;42.658;23.350;2022-12-10T02:07:33;79.37;;;73.40;;
2035;SDS011;23642;42.658;23.350;2022-12-10T02:10:08;76.40;;;70.57;;
2035;SDS011;23642;42.658;23.350;2022-12-10T02:12:44;78.73;;;72.43;;
2035;SDS011;23642;42.658;23.350;2022-12-10T02:15:16;80.40;;;74.30;;
2035;SDS011;23642;42.658;23.350;2022-12-10T02:17:46;79.00;;;73.20;;
2035;SDS011;23642;42.658;23.350;2022-12-10T02:20:17;78.63;;;72.13;;
2035;SDS011;23642;42.658;23.350;2022-12-10T02:22:49;78.00;;;72.20;;
2035;SDS011;23642;42.658;23.350;2022-12-10T02:25:25;76.80;;;70.20;;
2035;SDS011;23642;42.658;23.350;2022-12-10T02:28:01;75.83;;;70.00;;
2035;SDS011;23642;42.658;23.350;2022-12-10T02:30:35;77.70;;;71.50;;
2035;SDS011;23642;42.658;23.350;2022-12-10T02:33:05;78.63;;;72.50;;
2035;SDS011;23642;42.658;23.350;2022-12-10T02:35:35;78.97;;;72.90;;
2035;SDS011;23642;42.658;23.350;2022-12-10T02:38:07;79.03;;;72.90;;
2035;SDS011;23642;42.658;23.350;2022-12-10T02:40:38;78.17;;;71.80;;
2035;SDS011;23642;42.658;23.350;2022-12-10T02:43:09;78.57;;;72.60;;
2035;SDS011;23642;42.658;23.350;2022-12-10T02:45:40;76.50;;;70.73;;
2035;SDS011;23642;42.658;23.350;2022-12-10T02:48:09;78.43;;;71.30;;
2035;SDS011;23642;42.658;23.350;2022-12-10T02:50:38;74.80;;;69.37;;
2035;SDS011;23642;42.658;23.350;2022-12-10T02:53:05;73.07;;;67.73;;
2035;SDS011;23642;42.658;23.350;2022-12-10T02:55:37;75.70;;;70.23;;
2035;SDS011;23642;42.658;23.350;2022-12-10T02:58:14;75.43;;;69.50;;
2035;SDS011;23642;42.658;23.350;2022-12-10T03:00:50;74.87;;;69.40;;
2035;SDS011;23642;42.658;23.350;2022-12-10T03:03:30;74.40;;;69.00;;
2035;SDS011;23642;42.658;23.350;2022-12-10T03:06:05;75.27;;;69.80;;
2035;SDS011;23642;42.658;23.350;2022-12-10T03:08:39;78.07;;;72.40;;
2035;SDS011;23642;42.658;23.350;2022-12-10T03:11:09;75.00;;;69.00;;
2035;SDS011;23642;42.658;23.350;2022-12-10T03:13:40;74.33;;;68.63;;
2035;SDS011;23642;42.658;23.350;2022-12-10T03:16:13;74.90;;;69.47;;
2035;SDS011;23642;42.658;23.350;2022-12-10T03:18:41;76.27;;;70.93;;
2035;SDS011;23642;42.658;23.350;2022-12-10T03:21:10;77.93;;;71.90;;
2035;SDS011;23642;42.658;23.350;2022-12-10T03:23:40;77.60;;;71.80;;
2035;SDS011;23642;42.658;23.350;2022-12-10T03:26:10;78.33;;;71.60;;
2035;SDS011;23642;42.658;23.350;2022-12-10T03:28:38;76.30;;;70.60;;
2035;SDS011;23642;42.658;23.350;2022-12-10T03:31:10;75.60;;;69.97;;
2035;SDS011;23642;42.658;23.350;2022-12-10T03:33:40;76.37;;;70.50;;
2035;SDS011;23642;42.658;23.350;2022-12-10T03:36:08;78.23;;;72.47;;
2035;SDS011;23642;42.658;23.350;2022-12-10T03:38:35;76.60;;;71.10;;
2035;SDS011;23642;42.658;23.350;2022-12-10T03:41:03;75.00;;;69.70;;
2035;SDS011;23642;42.658;23.350;2022-12-10T03:43:30;79.70;;;73.90;;
2035;SDS011;23642;42.658;23.350;2022-12-10T03:45:57;78.53;;;72.97;;
2035;SDS011;23642;42.658;23.350;2022-12-10T03:48:26;78.23;;;72.33;;
2035;SDS011;23642;42.658;23.350;2022-12-10T03:50:54;78.00;;;72.30;;
2035;SDS011;23642;42.658;23.350;2022-12-10T03:53:36;80.37;;;74.20;;
2035;SDS011;23642;42.658;23.350;2022-12-10T03:56:14;79.23;;;73.57;;
2035;SDS011;23642;42.658;23.350;2022-12-10T03:58:41;81.43;;;75.33;;
2035;SDS011;23642;42.658;23.350;2022-12-10T04:01:08;79.83;;;74.23;;
2035;SDS011;23642;42.658;23.350;2022-12-10T04:03:37;78.57;;;73.00;;
2035;SDS011;23642;42.658;23.350;2022-12-10T04:06:06;79.20;;;73.43;;
2035;SDS011;23642;42.658;23.350;2022-12-10T04:08:36;79.27;;;73.60;;
2035;SDS011;23642;42.658;23.350;2022-12-10T04:11:03;79.07;;;73.17;;
2035;SDS011;23642;42.658;23.350;2022-12-10T04:13:31;79.43;;;73.93;;
2035;SDS011;23642;42.658;23.350;2022-12-10T04:16:17;79.03;;;73.10;;
2035;SDS011;23642;42.658;23.350;2022-12-10T04:18:55;78.20;;;72.47;;
2035;SDS011;23642;42.658;23.350;2022-12-10T04:21:30;79.03;;;73.27;;
2035;SDS011;23642;42.658;23.350;2022-12-10T04:24:20;73.97;;;68.67;;
2035;SDS011;23642;42.658;23.350;2022-12-10T04:27:07;75.47;;;69.83;;
2035;SDS011;23642;42.658;23.350;2022-12-10T04:29:36;77.20;;;71.00;;
2035;SDS011;23642;42.658;23.350;2022-12-10T04:32:07;76.00;;;70.43;;
2035;SDS011;23642;42.658;23.350;2022-12-10T04:34:39;73.13;;;67.40;;
2035;SDS011;23642;42.658;23.350;2022-12-10T04:37:14;73.40;;;68.00;;
2035;SDS011;23642;42.658;23.350;2022-12-10T04:39:43;72.13;;;66.20;;
2035;SDS011;23642;42.658;23.350;2022-12-10T04:42:10;70.40;;;64.93;;
2035;SDS011;23642;42.658;23.350;2022-12-10T04:44:38;64.23;;;59.67;;
2035;SDS011;23642;42.658;23.350;2022-12-10T04:47:08;76.73;;;70.87;;
2035;SDS011;23642;42.658;23.350;2022-12-10T04:49:36;70.50;;;65.30;;
2035;SDS011;23642;42.658;23.350;2022-12-10T04:52:05;73.73;;;68.33;;
2035;SDS011;23642;42.658;23.350;2022-12-10T04:54:33;73.30;;;68.10;;
2035;SDS011;23642;42.658;23.350;2022-12-10T04:57:00;73.03;;;67.63;;
2035;SDS011;23642;42.658;23.350;2022-12-10T04:59:27;71.90;;;66.60;;
2035;SDS011;23642;42.658;23.350;2022-12-10T05:01:54;71.30;;;66.20;;
2035;SDS011;23642;42.658;23.350;2022-12-10T05:04:21;73.10;;;67.97;;
2035;SDS011;23642;42.658;23.350;2022-12-10T05:06:50;71.73;;;66.43;;
2035;SDS011;23642;42.658;23.350;2022-12-10T05:09:16;72.37;;;67.00;;
2035;SDS011;23642;42.658;23.350;2022-12-10T05:11:43;68.63;;;63.60;;
2035;SDS011;23642;42.658;23.350;2022-12-10T05:14:10;70.13;;;64.80;;
2035;SDS011;23642;42.658;23.350;2022-12-10T05:16:38;72.37;;;67.03;;
2035;SDS011;23642;42.658;23.350;2022-12-10T05:19:05;70.77;;;65.77;;
2035;SDS011;23642;42.658;23.350;2022-12-10T05:21:32;72.93;;;67.50;;
2035;SDS011;23642;42.658;23.350;2022-12-10T05:24:14;71.57;;;66.50;;
2035;SDS011;23642;42.658;23.350;2022-12-10T05:26:44;71.30;;;66.30;;
2035;SDS011;23642;42.658;23.350;2022-12-10T05:29:20;68.70;;;63.70;;
2035;SDS011;23642;42.658;23.350;2022-12-10T05:31:47;67.80;;;62.80;;
2035;SDS011;23642;42.658;23.350;2022-12-10T05:34:13;65.70;;;60.97;;
2035;SDS011;23642;42.658;23.350;2022-12-10T05:36:40;67.70;;;62.80;;
2035;SDS011;23642;42.658;23.350;2022-12-10T05:39:07;61.97;;;57.50;;
2035;SDS011;23642;42.658;23.350;2022-12-10T05:41:36;64.70;;;60.10;;
2035;SDS011;23642;42.658;23.350;2022-12-10T05:44:05;63.97;;;58.97;;
2035;SDS011;23642;42.658;23.350;2022-12-10T05:46:33;64.67;;;60.00;;
2035;SDS011;23642;42.658;23.350;2022-12-10T05:49:01;62.60;;;57.83;;
2035;SDS011;23642;42.658;23.350;2022-12-10T05:51:31;63.30;;;58.60;;
2035;SDS011;23642;42.658;23.350;2022-12-10T05:54:00;63.43;;;58.27;;
2035;SDS011;23642;42.658;23.350;2022-12-10T05:56:28;62.53;;;58.03;;
2035;SDS011;23642;42.658;23.350;2022-12-10T05:58:58;62.83;;;58.00;;
2035;SDS011;23642;42.658;23.350;2022-12-10T06:01:27;64.23;;;58.73;;
2035;SDS011;23642;42.658;23.350;2022-12-10T06:03:56;63.77;;;59.13;;
2035;SDS011;23642;42.658;23.350;2022-12-10T06:06:24;63.77;;;59.07;;
2035;SDS011;23642;42.658;23.350;2022-12-10T06:08:53;66.47;;;61.57;;
2035;SDS011;23642;42.658;23.350;2022-12-10T06:11:20;68.70;;;62.97;;
2035;SDS011;23642;42.658;23.350;2022-12-10T06:13:47;65.80;;;60.90;;
2035;SDS011;23642;42.658;23.350;2022-12-10T06:16:16;68.00;;;63.10;;
2035;SDS011;23642;42.658;23.350;2022-12-10T06:18:43;66.70;;;61.50;;
2035;SDS011;23642;42.658;23.350;2022-12-10T06:21:10;67.60;;;62.37;;
2035;SDS011;23642;42.658;23.350;2022-12-10T06:23:39;66.50;;;61.60;;
2035;SDS011;23642;42.658;23.350;2022-12-10T06:26:07;70.40;;;64.77;;
2035;SDS011;23642;42.658;23.350;2022-12-10T06:28:36;69.40;;;63.90;;
2035;SDS011;23642;42.658;23.350;2022-12-10T06:31:04;70.93;;;65.47;;
2035;SDS011;23642;42.658;23.350;2022-12-10T06:33:33;66.53;;;61.63;;
2035;SDS011;23642;42.658;23.350;2022-12-10T06:36:02;67.60;;;62.60;;
2035;SDS011;23642;42.658;23.350;2022-12-10T06:38:29;66.20;;;61.20;;
2035;SDS011;23642;42.658;23.350;2022-12-10T06:40:56;67.43;;;62.53;;
2035;SDS011;23642;42.658;23.350;2022-12-10T06:43:24;67.13;;;62.30;;
2035;SDS011;23642;42.658;23.350;2022-12-10T06:45:51;71.07;;;65.90;;
2035;SDS011;23642;42.658;23.350;2022-12-10T06:48:18;69.17;;;64.00;;
2035;SDS011;23642;42.658;23.350;2022-12-10T06:50:46;70.03;;;64.63;;
2035;SDS011;23642;42.658;23.350;2022-12-10T06:53:13;69.97;;;64.43;;
2035;SDS011;23642;42.658;23.350;2022-12-10T06:55:40;72.33;;;66.60;;
2035;SDS011;23642;42.658;23.350;2022-12-10T06:58:07;73.67;;;68.30;;
2035;SDS011;23642;42.658;23.350;2022-12-10T07:00:34;72.20;;;67.10;;
2035;SDS011;23642;42.658;23.350;2022-12-10T07:03:01;70.43;;;65.43;;
2035;SDS011;23642;42.658;23.350;2022-12-10T07:05:28;75.27;;;69.43;;
2035;SDS011;23642;42.658;23.350;2022-12-10T07:07:56;71.23;;;66.03;;
2035;SDS011;23642;42.658;23.350;2022-12-10T07:13:35;73.97;;;68.47;;
2035;SDS011;23642;42.658;23.350;2022-12-10T07:16:11;73.20;;;67.40;;
2035;SDS011;23642;42.658;23.350;2022-12-10T07:18:39;69.97;;;64.80;;
2035;SDS011;23642;42.658;23.350;2022-12-10T07:21:14;70.77;;;65.10;;
2035;SDS011;23642;42.658;23.350;2022-12-10T07:23:45;70.47;;;65.53;;
2035;SDS011;23642;42.658;23.350;2022-12-10T07:26:13;68.53;;;63.50;;
2035;SDS011;23642;42.658;23.350;2022-12-10T07:28:54;72.40;;;66.50;;
2035;SDS011;23642;42.658;23.350;2022-12-10T07:31:22;71.90;;;66.33;;
2035;SDS011;23642;42.658;23.350;2022-12-10T07:33:49;72.37;;;66.40;;
2035;SDS011;23642;42.658;23.350;2022-12-10T07:36:17;73.53;;;67.93;;
2035;SDS011;23642;42.658;23.350;2022-12-10T07:38:46;72.80;;;66.90;;
2035;SDS011;23642;42.658;23.350;2022-12-10T07:41:20;73.20;;;67.40;;
2035;SDS011;23642;42.658;23.350;2022-12-10T07:43:48;74.77;;;68.43;;
2035;SDS011;23642;42.658;23.350;2022-12-10T07:46:16;75.53;;;70.00;;
2035;SDS011;23642;42.658;23.350;2022-12-10T07:48:45;76.07;;;70.20;;
2035;SDS011;23642;42.658;23.350;2022-12-10T07:51:14;74.43;;;68.63;;
2035;SDS011;23642;42.658;23.350;2022-12-10T07:53:42;76.40;;;70.37;;
2035;SDS011;23642;42.658;23.350;2022-12-10T07:56:11;74.87;;;69.30;;
2035;SDS011;23642;42.658;23.350;2022-12-10T07:58:40;75.73;;;69.77;;
2035;SDS011;23642;42.658;23.350;2022-12-10T08:01:09;75.00;;;69.20;;
2035;SDS011;23642;42.658;23.350;2022-12-10T08:03:37;76.47;;;70.10;;
2035;SDS011;23642;42.658;23.350;2022-12-10T08:06:05;79.77;;;73.80;;
2035;SDS011;23642;42.658;23.350;2022-12-10T08:08:34;78.90;;;72.53;;
2035;SDS011;23642;42.658;23.350;2022-12-10T08:11:05;77.90;;;72.20;;
2035;SDS011;23642;42.658;23.350;2022-12-10T08:16:55;79.50;;;73.50;;
2035;SDS011;23642;42.658;23.350;2022-12-10T08:19:22;79.73;;;73.93;;
2035;SDS011;23642;42.658;23.350;2022-12-10T08:31:23;80.03;;;73.60;;
2035;SDS011;23642;42.658;23.350;2022-12-10T08:34:02;81.63;;;75.47;;
2035;SDS011;23642;42.658;23.350;2022-12-10T08:36:29;80.77;;;74.47;;
2035;SDS011;23642;42.658;23.350;2022-12-10T08:38:59;81.27;;;75.33;;
2035;SDS011;23642;42.658;23.350;2022-12-10T08:41:29;79.60;;;73.57;;
2035;SDS011;23642;42.658;23.350;2022-12-10T08:43:58;78.83;;;72.73;;
2035;SDS011;23642;42.658;23.350;2022-12-10T08:46:29;80.93;;;74.57;;
2035;SDS011;23642;42.658;23.350;2022-12-10T08:48:56;80.33;;;74.50;;
2035;SDS011;23642;42.658;23.350;2022-12-10T08:51:24;78.07;;;72.37;;
2035;SDS011;23642;42.658;23.350;2022-12-10T08:53:52;80.50;;;74.07;;
2035;SDS011;23642;42.658;23.350;2022-12-10T08:56:22;82.40;;;76.20;;
2035;SDS011;23642;42.658;23.350;2022-12-10T08:58:49;81.77;;;75.33;;
2035;SDS011;23642;42.658;23.350;2022-12-10T09:01:17;81.83;;;75.53;;
2035;SDS011;23642;42.658;23.350;2022-12-10T09:03:45;81.80;;;75.70;;
2035;SDS011;23642;42.658;23.350;2022-12-10T09:06:15;78.77;;;72.90;;
2035;SDS011;23642;42.658;23.350;2022-12-10T09:08:44;80.63;;;74.60;;
2035;SDS011;23642;42.658;23.350;2022-12-10T09:11:13;83.13;;;76.70;;
2035;SDS011;23642;42.658;23.350;2022-12-10T09:13:41;80.83;;;74.70;;
2035;SDS011;23642;42.658;23.350;2022-12-10T09:16:09;82.50;;;76.50;;
2035;SDS011;23642;42.658;23.350;2022-12-10T09:18:40;81.97;;;75.63;;
2035;SDS011;23642;42.658;23.350;2022-12-10T09:21:10;82.83;;;76.60;;
2035;SDS011;23642;42.658;23.350;2022-12-10T09:23:45;79.00;;;72.87;;
2035;SDS011;23642;42.658;23.350;2022-12-10T09:26:13;80.10;;;73.70;;
2035;SDS011;23642;42.658;23.350;2022-12-10T09:28:43;80.60;;;74.50;;
2035;SDS011;23642;42.658;23.350;2022-12-10T09:31:16;83.10;;;76.63;;
2035;SDS011;23642;42.658;23.350;2022-12-10T09:33:47;83.97;;;77.43;;
2035;SDS011;23642;42.658;23.350;2022-12-10T09:36:17;84.70;;;78.20;;
2035;SDS011;23642;42.658;23.350;2022-12-10T09:38:50;83.33;;;77.07;;
2035;SDS011;23642;42.658;23.350;2022-12-10T09:44:12;84.97;;;78.57;;
2035;SDS011;23642;42.658;23.350;2022-12-10T09:46:50;84.07;;;77.23;;
2035;SDS011;23642;42.658;23.350;2022-12-10T09:49:24;86.47;;;80.17;;
2035;SDS011;23642;42.658;23.350;2022-12-10T09:52:09;85.23;;;78.77;;
2035;SDS011;23642;42.658;23.350;2022-12-10T09:54:42;84.90;;;78.50;;
2035;SDS011;23642;42.658;23.350;2022-12-10T09:57:15;87.83;;;81.20;;
2035;SDS011;23642;42.658;23.350;2022-12-10T09:59:48;86.40;;;80.10;;
2035;SDS011;23642;42.658;23.350;2022-12-10T10:02:19;84.77;;;78.43;;
2035;SDS011;23642;42.658;23.350;2022-12-10T10:07:47;87.80;;;81.00;;
2035;SDS011;23642;42.658;23.350;2022-12-10T10:10:21;86.83;;;80.53;;
2035;SDS011;23642;42.658;23.350;2022-12-10T10:12:52;88.53;;;81.97;;
2035;SDS011;23642;42.658;23.350;2022-12-10T10:15:29;87.60;;;80.77;;
2035;SDS011;23642;42.658;23.350;2022-12-10T10:18:01;91.53;;;85.03;;
2035;SDS011;23642;42.658;23.350;2022-12-10T10:20:32;89.83;;;83.13;;
2035;SDS011;23642;42.658;23.350;2022-12-10T10:23:04;89.53;;;82.60;;
2035;SDS011;23642;42.658;23.350;2022-12-10T10:25:43;91.10;;;84.33;;
2035;SDS011;23642;42.658;23.350;2022-12-10T10:28:12;92.20;;;85.00;;
2035;SDS011;23642;42.658;23.350;2022-12-10T10:30:47;92.03;;;84.90;;
2035;SDS011;23642;42.658;23.350;2022-12-10T10:33:21;91.97;;;84.77;;
2035;SDS011;23642;42.658;23.350;2022-12-10T10:35:49;92.90;;;86.27;;
2035;SDS011;23642;42.658;23.350;2022-12-10T10:38:22;92.37;;;85.43;;
2035;SDS011;23642;42.658;23.350;2022-12-10T10:40:56;92.70;;;85.63;;
2035;SDS011;23642;42.658;23.350;2022-12-10T10:43:28;96.27;;;89.00;;
2035;SDS011;23642;42.658;23.350;2022-12-10T10:46:00;99.83;;;92.20;;
2035;SDS011;23642;42.658;23.350;2022-12-10T10:48:30;97.03;;;89.80;;
2035;SDS011;23642;42.658;23.350;2022-12-10T10:51:04;96.93;;;89.83;;
2035;SDS011;23642;42.658;23.350;2022-12-10T10:56:19;97.40;;;89.83;;
2035;SDS011;23642;42.658;23.350;2022-12-10T10:59:02;94.90;;;87.63;;
2035;SDS011;23642;42.658;23.350;2022-12-10T11:01:43;97.13;;;89.60;;
2035;SDS011;23642;42.658;23.350;2022-12-10T11:04:15;98.83;;;91.10;;
2035;SDS011;23642;42.658;23.350;2022-12-10T11:06:46;101.00;;;92.70;;
2035;SDS011;23642;42.658;23.350;2022-12-10T11:09:28;99.57;;;91.77;;
2035;SDS011;23642;42.658;23.350;2022-12-10T11:12:03;99.50;;;92.27;;
2035;SDS011;23642;42.658;23.350;2022-12-10T11:14:33;99.70;;;92.43;;
2035;SDS011;23642;42.658;23.350;2022-12-10T11:17:12;100.83;;;93.30;;
2035;SDS011;23642;42.658;23.350;2022-12-10T11:19:53;101.07;;;92.80;;
2035;SDS011;23642;42.658;23.350;2022-12-10T11:22:26;98.63;;;90.70;;
2035;SDS011;23642;42.658;23.350;2022-12-10T11:24:55;101.23;;;91.63;;
2035;SDS011;23642;42.658;23.350;2022-12-10T11:27:38;98.77;;;91.27;;
2035;SDS011;23642;42.658;23.350;2022-12-10T11:30:16;97.67;;;90.00;;
2035;SDS011;23642;42.658;23.350;2022-12-10T11:32:52;100.13;;;91.77;;
2035;SDS011;23642;42.658;23.350;2022-12-10T11:35:35;96.87;;;89.83;;
2035;SDS011;23642;42.658;23.350;2022-12-10T11:38:15;96.53;;;89.63;;
2035;SDS011;23642;42.658;23.350;2022-12-10T11:40:55;97.13;;;89.97;;
2035;SDS011;23642;42.658;23.350;2022-12-10T11:43:42;97.73;;;90.33;;
2035;SDS011;23642;42.658;23.350;2022-12-10T11:46:25;98.37;;;90.33;;
2035;SDS011;23642;42.658;23.350;2022-12-10T11:49:11;97.23;;;90.00;;
2035;SDS011;23642;42.658;23.350;2022-12-10T11:51:50;96.90;;;89.90;;
2035;SDS011;23642;42.658;23.350;2022-12-10T11:54:36;98.00;;;90.50;;
2035;SDS011;23642;42.658;23.350;2022-12-10T11:57:27;96.57;;;89.00;;
2035;SDS011;23642;42.658;23.350;2022-12-10T12:00:02;93.63;;;86.90;;
2035;SDS011;23642;42.658;23.350;2022-12-10T12:05:48;93.47;;;86.50;;
2035;SDS011;23642;42.658;23.350;2022-12-10T12:08:31;94.27;;;87.10;;
2035;SDS011;23642;42.658;23.350;2022-12-10T12:11:24;92.67;;;86.10;;
2035;SDS011;23642;42.658;23.350;2022-12-10T12:14:04;93.77;;;87.07;;
2035;SDS011;23642;42.658;23.350;2022-12-10T12:16:41;95.10;;;88.00;;
2035;SDS011;23642;42.658;23.350;2022-12-10T12:19:16;95.13;;;87.43;;
2035;SDS011;23642;42.658;23.350;2022-12-10T12:22:06;93.63;;;86.40;;
2035;SDS011;23642;42.658;23.350;2022-12-10T12:24:41;93.80;;;86.80;;
2035;SDS011;23642;42.658;23.350;2022-12-10T12:27:19;92.83;;;85.70;;
2035;SDS011;23642;42.658;23.350;2022-12-10T12:29:56;94.87;;;87.37;;
2035;SDS011;23642;42.658;23.350;2022-12-10T12:32:38;94.47;;;86.83;;
2035;SDS011;23642;42.658;23.350;2022-12-10T12:35:19;91.80;;;84.70;;
2035;SDS011;23642;42.658;23.350;2022-12-10T12:37:55;90.50;;;83.90;;
2035;SDS011;23642;42.658;23.350;2022-12-10T12:40:28;93.57;;;84.73;;
2035;SDS011;23642;42.658;23.350;2022-12-10T12:43:03;93.57;;;86.20;;
2035;SDS011;23642;42.658;23.350;2022-12-10T12:45:39;91.70;;;85.10;;
2035;SDS011;23642;42.658;23.350;2022-12-10T12:48:18;94.13;;;87.00;;
2035;SDS011;23642;42.658;23.350;2022-12-10T12:50:54;93.00;;;85.40;;
2035;SDS011;23642;42.658;23.350;2022-12-10T12:53:28;93.83;;;86.57;;
2035;SDS011;23642;42.658;23.350;2022-12-10T12:56:05;94.80;;;87.10;;
2035;SDS011;23642;42.658;23.350;2022-12-10T12:58:46;90.67;;;83.97;;
2035;SDS011;23642;42.658;23.350;2022-12-10T13:01:21;92.97;;;85.60;;
2035;SDS011;23642;42.658;23.350;2022-12-10T13:03:58;93.27;;;86.10;;
2035;SDS011;23642;42.658;23.350;2022-12-10T13:06:28;96.80;;;88.60;;
2035;SDS011;23642;42.658;23.350;2022-12-10T13:08:57;92.47;;;84.07;;
2035;SDS011;23642;42.658;23.350;2022-12-10T13:11:44;96.60;;;87.80;;
2035;SDS011;23642;42.658;23.350;2022-12-10T13:14:36;93.30;;;85.47;;
2035;SDS011;23642;42.658;23.350;2022-12-10T13:17:30;92.30;;;85.07;;
2035;SDS011;23642;42.658;23.350;2022-12-10T13:23:29;92.57;;;85.37;;
2035;SDS011;23642;42.658;23.350;2022-12-10T13:26:04;90.53;;;83.53;;
2035;SDS011;23642;42.658;23.350;2022-12-10T13:28:50;91.03;;;84.20;;
2035;SDS011;23642;42.658;23.350;2022-12-10T13:31:31;89.10;;;82.23;;
2035;SDS011;23642;42.658;23.350;2022-12-10T13:39:45;90.57;;;83.10;;
2035;SDS011;23642;42.658;23.350;2022-12-10T13:42:24;90.27;;;83.67;;
2035;SDS011;23642;42.658;23.350;2022-12-10T13:45:23;91.97;;;84.97;;
2035;SDS011;23642;42.658;23.350;2022-12-10T13:48:23;91.40;;;84.27;;
2035;SDS011;23642;42.658;23.350;2022-12-10T13:51:08;90.20;;;83.00;;
2035;SDS011;23642;42.658;23.350;2022-12-10T13:53:52;91.57;;;84.27;;
2035;SDS011;23642;42.658;23.350;2022-12-10T13:56:34;94.10;;;86.40;;
2035;SDS011;23642;42.658;23.350;2022-12-10T13:59:28;93.23;;;85.30;;
2035;SDS011;23642;42.658;23.350;2022-12-10T14:02:18;92.20;;;84.73;;
2035;SDS011;23642;42.658;23.350;2022-12-10T14:05:09;93.70;;;86.53;;
2035;SDS011;23642;42.658;23.350;2022-12-10T14:07:48;91.27;;;84.57;;
2035;SDS011;23642;42.658;23.350;2022-12-10T14:10:30;89.73;;;83.03;;
2035;SDS011;23642;42.658;23.350;2022-12-10T14:13:15;88.90;;;81.80;;
2035;SDS011;23642;42.658;23.350;2022-12-10T14:15:51;91.73;;;84.73;;
2035;SDS011;23642;42.658;23.350;2022-12-10T14:18:25;91.20;;;83.40;;
2035;SDS011;23642;42.658;23.350;2022-12-10T14:20:58;90.93;;;84.17;;
2035;SDS011;23642;42.658;23.350;2022-12-10T14:23:36;93.60;;;86.00;;
2035;SDS011;23642;42.658;23.350;2022-12-10T14:26:14;90.43;;;83.73;;
2035;SDS011;23642;42.658;23.350;2022-12-10T14:29:00;93.33;;;86.27;;
2035;SDS011;23642;42.658;23.350;2022-12-10T14:31:47;93.70;;;86.93;;
2035;SDS011;23642;42.658;23.350;2022-12-10T14:34:16;97.57;;;88.13;;
2035;SDS011;23642;42.658;23.350;2022-12-10T14:36:53;90.47;;;83.87;;
2035;SDS011;23642;42.658;23.350;2022-12-10T14:39:27;89.40;;;82.80;;
2035;SDS011;23642;42.658;23.350;2022-12-10T14:42:03;93.63;;;86.40;;
2035;SDS011;23642;42.658;23.350;2022-12-10T14:44:37;97.17;;;88.17;;
2035;SDS011;23642;42.658;23.350;2022-12-10T14:47:12;98.53;;;89.73;;
2035;SDS011;23642;42.658;23.350;2022-12-10T14:49:51;96.83;;;88.23;;
2035;SDS011;23642;42.658;23.350;2022-12-10T14:52:23;97.17;;;88.60;;
2035;SDS011;23642;42.658;23.350;2022-12-10T14:54:54;95.23;;;87.50;;
2035;SDS011;23642;42.658;23.350;2022-12-10T14:57:27;94.87;;;87.20;;
2035;SDS011;23642;42.658;23.350;2022-12-10T15:00:02;102.83;;;91.80;;
2035;SDS011;23642;42.658;23.350;2022-12-10T15:02:34;96.03;;;87.00;;
2035;SDS011;23642;42.658;23.350;2022-12-10T15:05:09;97.03;;;88.80;;
2035;SDS011;23642;42.658;23.350;2022-12-10T15:07:38;97.90;;;89.50;;
2035;SDS011;23642;42.658;23.350;2022-12-10T15:10:07;97.37;;;89.70;;
2035;SDS011;23642;42.658;23.350;2022-12-10T15:12:48;95.73;;;88.20;;
2035;SDS011;23642;42.658;23.350;2022-12-10T15:15:21;99.87;;;89.40;;
2035;SDS011;23642;42.658;23.350;2022-12-10T15:17:55;94.10;;;86.20;;
2035;SDS011;23642;42.658;23.350;2022-12-10T15:20:36;93.53;;;86.10;;
2035;SDS011;23642;42.658;23.350;2022-12-10T15:23:16;95.90;;;87.80;;
2035;SDS011;23642;42.658;23.350;2022-12-10T15:26:00;95.70;;;86.93;;
2035;SDS011;23642;42.658;23.350;2022-12-10T15:28:34;96.13;;;88.13;;
2035;SDS011;23642;42.658;23.350;2022-12-10T15:31:12;98.23;;;89.57;;